Rose City, MI

4:17 PM EDT on May 25, 2015 (GMT -0400)
Oscoda-Wurtsmith | | Change Station
CLOSE
Current Station
Airport
Location: Oscoda,
Elevation: 633 ft
Nearby Weather Stations

Elev 633 ft 44.45 °N, 83.39 °W | Updated 24 minutes ago

Mostly Cloudy
Mostly Cloudy
77 °F
Feels Like 77 °F
N
16
Wind Variable Wind from SW
Gusts 23 mph

Today
High -- | Low -- °F
--% Chance of Precip.
Yesterday
High -- | Low -- °F
Precip. -- in
5:59 AM 9:07 PM
Waxing Crescent, 51% visible
Pressure 29.82 in
Visibility 10.0 miles
Clouds Scattered Clouds 2100 ft
Scattered Clouds 2600 ft
Dew Point 68 °F
Humidity 72%
Rainfall 0.17 in
Snow Depth Not available.
UV 6 out of 12
Pollen 1.00 out of 12
Air Quality Not available.
Flu Activity Sporadic
METAR KOSC 251953Z AUTO 22014G20KT 10SM SCT021 SCT026 25/20 A2982 RMK AO2 T02510197

More Conditions Fewer Conditions

Pressure 29.82 in
Visibility 10.0 miles
Clouds Scattered Clouds 2100 ft
Scattered Clouds 2600 ft
Dew Point 68 °F
Humidity 72%
Rainfall 0.17 in
Snow Depth Not available.
UV 6 out of 12
Pollen 1.00 out of 12
Air Quality Not available.
Flu Activity Sporadic
METAR KOSC 251953Z AUTO 22014G20KT 10SM SCT021 SCT026 25/20 A2982 RMK AO2 T02510197

More Conditions Fewer Conditions

Nowcast | as of 4:00 PM EDT on May 25, 2015

At 5 PM...mostly cloudy. Chance of showers. Temperature 76. Southwest winds 18 mph. At 7 PM...partly cloudy. Chance of showers. Temperature 76. Southwest winds 16 mph. At 9 PM...partly cloudy. Temperature 71. Southwest winds 13 mph. At 11 PM...partly cloudy. Temperature 68. Southwest winds 9 mph.

×

10-Day Weather Forecast

Almanac

Astronomy

May. 25, 2015 Rise Set
Actual Time
Civil Twilight
Nautical Twilight
Astronomical Twilight
Moon
Length of Visible Light
Length of Day
Tomorrow will be .
, % of the Moon is Illuminated

Today's Extremes

State Highs State Lows

Community

WunderPhotos

Upload Photos

1,824,117 photos uploaded!

WunderBlogs® & News

Nearby

Air Quality

  Air Quality AQ Index Pollutant
Not available.

Snow Depth

Station Depth Elevation

Earthquake Activity

City Distance Mag. Time & Date
Minimum magnitude displayed is 2.5.

Coastal Water Temperatures

Place Temperature

Stations

Nearby Weather Stations

Station Location Temp. Windchill Dew Point Humidity Wind Precip. Elev Updated Type